Time;durP1;ratioP1;P1;durP2;ratioP2;P2;SDS_P1;SDS_P2;PMS_P1;PMS_P2;Temp;Humidity;BMP_temperature;BMP_pressure;BME280_temperature;BME280_humidity;BME280_pressure;Samples;Min_cycle;Max_cycle;Signal;HPM_P1;HPM_P2
2021/07/23 22:23:47;;;;;;;;;17.50;17.00;;;;;;;;3578984;39;112175;-81
2021/07/23 22:26:14;;;;;;;;;19.50;15.25;;;;;;;;3565850;39;113899;-78
2021/07/23 22:28:41;;;;;;;;;23.50;20.25;;;;;;;;3566509;39;112049;-77
2021/07/23 22:31:08;;;;;;;;;19.25;17.50;;;;;;;;3565710;39;113156;-76
2021/07/23 22:33:35;;;;;;;;;16.75;16.75;;;;;;;;3566097;39;113966;-76
2021/07/23 22:36:01;;;;;;;;;16.75;13.50;;;;;;;;3566850;39;112363;-76
2021/07/23 22:38:28;;;;;;;;;16.00;15.00;;;;;;;;3566000;39;113204;-76
2021/07/23 22:40:56;;;;;;;;;14.25;14.25;;;;;;;;3566957;39;113873;-76
2021/07/23 22:43:22;;;;;;;;;17.00;14.50;;;;;;;;3568542;39;111698;-76
2021/07/23 22:45:51;;;;;;;;;18.00;15.33;;;;;;;;3563302;39;114445;-76
2021/07/23 22:48:18;;;;;;;;;17.33;17.00;;;;;;;;3567356;39;111899;-75
2021/07/23 22:50:44;;;;;;;;;13.67;13.67;;;;;;;;3566012;39;113224;-77
2021/07/23 22:53:11;;;;;;;;;18.00;17.00;;;;;;;;3560653;39;113061;-75
2021/07/23 22:55:37;;;;;;;;;17.00;16.67;;;;;;;;3566754;39;111722;-75
2021/07/23 22:58:05;;;;;;;;;16.00;14.75;;;;;;;;3566546;39;113275;-75
2021/07/23 23:00:32;;;;;;;;;16.75;16.75;;;;;;;;3565839;39;113826;-76
2021/07/23 23:02:58;;;;;;;;;17.25;16.75;;;;;;;;3563258;39;112274;-75
2021/07/23 23:05:25;;;;;;;;;20.00;16.67;;;;;;;;3567874;39;113210;-77
2021/07/23 23:07:53;;;;;;;;;17.00;14.00;;;;;;;;3567621;39;112050;-76
2021/07/23 23:10:20;;;;;;;;;19.00;18.00;;;;;;;;3563713;39;113404;-76
2021/07/23 23:12:46;;;;;;;;;17.00;15.25;;;;;;;;3565210;39;113304;-77
2021/07/23 23:15:15;;;;;;;;;19.75;16.75;;;;;;;;3565578;39;112749;-75
2021/07/23 23:17:41;;;;;;;;;19.00;16.50;;;;;;;;3566883;39;113321;-75
2021/07/23 23:20:09;;;;;;;;;20.75;19.75;;;;;;;;3565692;39;113864;-72
2021/07/23 23:22:35;;;;;;;;;17.67;16.67;;;;;;;;3566350;39;111924;-75
2021/07/23 23:25:02;;;;;;;;;17.50;15.75;;;;;;;;3566667;39;114936;-75
2021/07/23 23:27:31;;;;;;;;;17.67;17.67;;;;;;;;3568441;39;113815;-75
2021/07/23 23:29:57;;;;;;;;;14.00;13.50;;;;;;;;3564831;39;113349;-76
2021/07/23 23:32:26;;;;;;;;;15.25;14.50;;;;;;;;3563634;39;113529;-76
2021/07/23 23:34:53;;;;;;;;;17.67;16.67;;;;;;;;3561306;39;112305;-76
2021/07/23 23:37:21;;;;;;;;;14.67;14.67;;;;;;;;3558953;39;113273;-77
2021/07/23 23:39:47;;;;;;;;;16.00;16.00;;;;;;;;3558325;39;114132;-77
2021/07/23 23:42:14;;;;;;;;;15.00;15.00;;;;;;;;3558927;39;111915;-76
2021/07/23 23:44:40;;;;;;;;;19.00;18.00;;;;;;;;3560149;39;113560;-76
2021/07/23 23:47:07;;;;;;;;;15.33;14.33;;;;;;;;3556871;39;114743;-76
2021/07/23 23:49:40;;;;;;;;;14.33;14.33;;;;;;;;3563915;39;112038;-77
2021/07/23 23:52:07;;;;;;;;;17.00;17.00;;;;;;;;3556448;39;114206;-76
2021/07/23 23:54:34;;;;;;;;;17.00;17.00;;;;;;;;3559700;39;112327;-76
2021/07/23 23:57:02;;;;;;;;;14.67;13.67;;;;;;;;3559931;39;113989;-76
2021/07/23 23:59:29;;;;;;;;;16.67;14.67;;;;;;;;3558826;39;114255;-76
